Harvel, Illinois
Current Conditions -  °F | °C
As of 7:35 AM on Saturday 25 Oct 2014 (Local Time) from K3LF Reporting Station
Haze Haze  
Wind Chill: 54°   Ceiling: 1400
Heat Index: 54°   Visibility: 2.5mi
Dew Point: 53°   Wind: 3mph
Humidity: 95%   Direction: 310°NW
Pressure: 30.02"   Gusts: NA
Location:  39.36°N, 89.53°W
Report Text: K3LF 251235Z AUTO 31003KT 2 1/2SM BR OVC014 12/12 A3002 RMK AO2 T01230115
Loading
Personal Weather Stations






























Interactive Weather Map
Tropical Storm Tracking
New forecast layout! Learn more

10-Day Weather Forecast

Advertisements
Track Severe Weather on mobile